createdAt,value
2018-04-13T00:01:35.279Z,17.30
2018-04-13T00:04:02.115Z,11.80
2018-04-13T00:06:28.938Z,20.20
2018-04-13T00:08:55.794Z,12.73
2018-04-13T00:11:22.639Z,16.97
2018-04-13T00:13:49.472Z,16.27
2018-04-13T00:16:16.421Z,27.57
2018-04-13T00:18:43.296Z,17.57
2018-04-13T00:21:10.217Z,20.17
2018-04-13T00:23:37.152Z,11.23
2018-04-13T00:26:04.035Z,16.67
2018-04-13T00:28:30.859Z,16.30
2018-04-13T00:30:57.733Z,18.57
2018-04-13T00:33:24.578Z,15.90
2018-04-13T00:35:51.478Z,23.83
2018-04-13T00:38:18.393Z,16.40
2018-04-13T00:40:45.261Z,19.00
2018-04-13T00:43:12.137Z,18.07
2018-04-13T00:45:39.010Z,17.43
2018-04-13T00:48:05.881Z,21.60
2018-04-13T00:50:32.747Z,16.00
2018-04-13T00:53:05.461Z,22.50
2018-04-13T00:55:32.392Z,18.03
2018-04-13T00:57:59.257Z,23.60
2018-04-13T01:00:26.079Z,21.00
2018-04-13T01:02:52.958Z,27.40
2018-04-13T01:05:19.808Z,24.90
2018-04-13T01:07:46.650Z,18.33
2018-04-13T01:10:13.547Z,23.87
2018-04-13T01:12:40.421Z,23.10
2018-04-13T01:15:07.357Z,26.43
2018-04-13T01:17:34.205Z,21.43
2018-04-13T01:20:01.089Z,20.93
2018-04-13T01:22:27.965Z,19.27
2018-04-13T01:24:54.844Z,15.83
2018-04-13T01:27:21.719Z,24.70
2018-04-13T01:29:48.630Z,20.83
2018-04-13T01:32:15.494Z,16.93
2018-04-13T01:34:42.342Z,20.43
2018-04-13T01:37:09.271Z,27.17
2018-04-13T01:39:36.198Z,25.00
2018-04-13T01:42:03.050Z,20.27
2018-04-13T01:44:30.027Z,20.60
2018-04-13T01:46:57.034Z,23.97
2018-04-13T01:49:23.890Z,29.40
2018-04-13T01:51:50.822Z,26.80
2018-04-13T01:54:17.765Z,25.33
2018-04-13T01:56:44.698Z,27.80
2018-04-13T01:59:11.651Z,31.63
2018-04-13T02:01:38.612Z,20.67
2018-04-13T02:04:05.467Z,33.97
2018-04-13T02:06:32.355Z,25.77
2018-04-13T02:08:59.306Z,22.77
2018-04-13T02:11:26.264Z,20.87
2018-04-13T02:13:53.163Z,26.70
2018-04-13T02:16:20.035Z,30.57
2018-04-13T02:18:46.952Z,26.37
2018-04-13T02:21:13.885Z,32.00
2018-04-13T02:23:40.728Z,34.13
2018-04-13T02:26:07.644Z,27.60
2018-04-13T02:28:34.601Z,27.57
2018-04-13T02:31:01.513Z,32.20
2018-04-13T02:33:28.417Z,28.83
2018-04-13T02:35:55.349Z,25.90
2018-04-13T02:38:22.350Z,28.50
2018-04-13T02:40:49.243Z,28.40
2018-04-13T02:43:16.082Z,35.93
2018-04-13T02:45:42.897Z,33.50
2018-04-13T02:48:09.839Z,32.87
2018-04-13T02:50:36.721Z,28.53
2018-04-13T02:53:03.582Z,33.43
2018-04-13T02:55:30.396Z,25.87
2018-04-13T02:57:57.312Z,32.63
2018-04-13T03:00:24.216Z,26.97
2018-04-13T03:02:51.103Z,29.07
2018-04-13T03:05:17.903Z,37.77
2018-04-13T03:07:44.753Z,30.87
2018-04-13T03:10:11.678Z,29.40
2018-04-13T03:12:38.618Z,30.63
2018-04-13T03:15:05.538Z,30.73
2018-04-13T03:17:32.425Z,25.57
2018-04-13T03:19:59.352Z,33.70
2018-04-13T03:22:26.245Z,33.23
2018-04-13T03:24:53.115Z,35.10
2018-04-13T03:27:20.181Z,28.27
2018-04-13T03:29:47.028Z,37.53
2018-04-13T03:32:13.880Z,34.87
2018-04-13T03:34:40.809Z,28.07
2018-04-13T03:37:07.660Z,37.57
2018-04-13T03:39:34.538Z,28.77
2018-04-13T03:42:01.498Z,38.67
2018-04-13T03:44:28.500Z,25.80
2018-04-13T03:46:55.461Z,36.27
2018-04-13T03:49:22.421Z,31.83
2018-04-13T03:51:49.265Z,30.40
2018-04-13T03:54:16.257Z,39.37
2018-04-13T03:56:43.117Z,37.63
2018-04-13T03:59:09.997Z,29.83
2018-04-13T04:01:36.869Z,34.00
2018-04-13T04:04:03.710Z,31.53
2018-04-13T04:06:30.613Z,30.03
2018-04-13T04:08:57.518Z,29.53
2018-04-13T04:11:24.461Z,30.40
2018-04-13T04:13:51.357Z,27.30
2018-04-13T04:16:18.290Z,29.03
2018-04-13T04:18:45.139Z,29.67
2018-04-13T04:21:17.734Z,31.17
2018-04-13T04:24:02.494Z,33.17
2018-04-13T04:26:35.172Z,26.83
2018-04-13T04:29:01.982Z,24.80
2018-04-13T04:31:28.885Z,29.03
2018-04-13T04:33:55.780Z,30.90
2018-04-13T04:36:22.706Z,28.17
2018-04-13T04:38:49.580Z,23.63
2018-04-13T04:41:16.444Z,29.77
2018-04-13T04:43:43.355Z,22.10
2018-04-13T04:46:10.202Z,28.83
2018-04-13T04:48:37.027Z,31.23
2018-04-13T04:51:03.912Z,28.93
2018-04-13T04:53:30.774Z,35.77
2018-04-13T04:55:57.676Z,34.57
2018-04-13T04:58:24.596Z,34.70
2018-04-13T05:00:51.506Z,32.63
2018-04-13T05:03:18.558Z,38.77
2018-04-13T05:05:45.391Z,36.73
2018-04-13T05:08:12.283Z,36.77
2018-04-13T05:10:39.173Z,39.17
2018-04-13T05:13:06.070Z,38.00
2018-04-13T05:15:32.984Z,37.07
2018-04-13T05:17:59.916Z,34.83
2018-04-13T05:20:26.808Z,38.57
2018-04-13T05:22:53.651Z,36.17
2018-04-13T05:25:20.522Z,37.60
2018-04-13T05:27:47.445Z,29.47
2018-04-13T05:30:15.767Z,30.43
2018-04-13T05:32:42.586Z,33.97
2018-04-13T05:35:09.537Z,31.37
2018-04-13T05:37:36.358Z,32.10
2018-04-13T05:40:03.225Z,33.27
2018-04-13T05:42:30.118Z,26.60
2018-04-13T05:44:57.163Z,29.83
2018-04-13T05:47:24.169Z,38.03
2018-04-13T05:49:51.054Z,33.80
2018-04-13T05:52:17.951Z,25.27
2018-04-13T05:54:44.906Z,27.27
2018-04-13T05:57:11.800Z,29.00
2018-04-13T05:59:38.650Z,26.70
2018-04-13T06:02:05.521Z,27.00
2018-04-13T06:04:32.427Z,23.00
2018-04-13T06:06:59.381Z,21.43
2018-04-13T06:09:26.271Z,25.87
2018-04-13T06:11:53.235Z,25.67
2018-04-13T06:14:20.114Z,22.77
2018-04-13T06:16:47.150Z,26.47
2018-04-13T06:19:14.047Z,22.17
2018-04-13T06:21:40.983Z,21.87
2018-04-13T06:24:07.854Z,18.83
2018-04-13T06:26:34.740Z,13.97
2018-04-13T06:29:01.787Z,19.20
2018-04-13T06:31:28.646Z,16.47
2018-04-13T06:33:55.525Z,16.40
2018-04-13T06:36:22.415Z,17.27
2018-04-13T06:38:49.348Z,15.77
2018-04-13T06:41:16.270Z,21.23
2018-04-13T06:43:43.201Z,16.80
2018-04-13T06:46:10.101Z,18.50
2018-04-13T06:48:36.983Z,17.17
2018-04-13T06:51:03.847Z,16.23
2018-04-13T06:53:30.719Z,16.87
2018-04-13T06:55:57.578Z,18.60
2018-04-13T06:58:24.442Z,14.27
2018-04-13T07:00:51.361Z,15.53
2018-04-13T07:03:18.260Z,14.77
2018-04-13T07:05:47.347Z,16.60
2018-04-13T07:49:14.666Z,7.63
2018-04-13T07:51:42.476Z,8.53
